Time;durP1;ratioP1;P1;durP2;ratioP2;P2;SDS_P1;SDS_P2;PMS_P1;PMS_P2;Temp;Humidity;BMP_temperature;BMP_pressure;BME280_temperature;BME280_humidity;BME280_pressure;Samples;Min_cycle;Max_cycle;Signal;HPM_P1;HPM_P2
2021/08/01 00:04:10;;;;;;;3.58;2.97;;;21.80;68.80;;;;;;10432977;28;20063;-53
2021/08/01 00:09:10;;;;;;;4.28;3.08;;;21.70;68.60;;;;;;10450765;28;20053;-52
2021/08/01 00:14:11;;;;;;;3.72;2.88;;;21.70;68.60;;;;;;10450494;28;20029;-52
2021/08/01 00:19:12;;;;;;;4.50;2.67;;;21.70;68.50;;;;;;10450420;28;20413;-53
2021/08/01 00:24:13;;;;;;;3.58;3.17;;;21.70;68.50;;;;;;10457212;28;20079;-53
2021/08/01 00:29:14;;;;;;;3.60;2.88;;;21.70;68.50;;;;;;10449770;28;20090;-53
2021/08/01 00:34:14;;;;;;;4.03;3.10;;;21.70;68.40;;;;;;10449210;28;20127;-53
2021/08/01 00:39:15;;;;;;;3.50;2.90;;;21.70;68.40;;;;;;10431626;28;20796;-53
2021/08/01 00:44:16;;;;;;;4.00;2.97;;;21.70;68.40;;;;;;10415082;28;20084;-53
2021/08/01 00:49:16;;;;;;;4.55;3.15;;;21.70;68.30;;;;;;10431527;28;20033;-53
2021/08/01 00:54:17;;;;;;;5.07;3.15;;;21.70;68.50;;;;;;10448987;28;20139;-54
2021/08/01 00:59:19;;;;;;;4.85;3.97;;;21.70;68.50;;;;;;10448912;28;20464;-53
2021/08/01 01:04:29;;;;;;;7.80;3.67;;;21.70;68.50;;;;;;10449155;28;20028;-53
2021/08/01 01:09:43;;;;;;;4.13;3.17;;;21.70;68.50;;;;;;10432046;28;20029;-53
2021/08/01 01:14:51;;;;;;;5.75;4.15;;;21.70;68.50;;;;;;10448730;28;20549;-52
2021/08/01 01:20:19;;;;;;;4.38;3.90;;;21.70;68.40;;;;;;10452561;28;20829;-52
2021/08/01 01:25:42;;;;;;;4.60;3.67;;;21.70;68.40;;;;;;10452519;28;20116;-53
2021/08/01 01:30:58;;;;;;;5.28;3.88;;;21.70;68.40;;;;;;10414817;28;20448;-53
2021/08/01 01:36:02;;;;;;;4.68;3.72;;;21.60;68.40;;;;;;10452999;28;20040;-53
2021/08/01 01:41:04;;;;;;;5.72;4.05;;;21.60;68.40;;;;;;10439348;28;20117;-53
2021/08/01 01:46:05;;;;;;;5.18;3.90;;;21.60;68.40;;;;;;10438649;28;20069;-53
2021/08/01 01:51:06;;;;;;;4.90;3.50;;;21.60;68.40;;;;;;10438504;28;20468;-54
2021/08/01 01:56:12;;;;;;;5.00;3.80;;;21.60;68.40;;;;;;10445869;28;20033;-53
2021/08/01 02:01:13;;;;;;;5.45;3.67;;;21.60;68.40;;;;;;10436779;28;20041;-53
2021/08/01 02:06:15;;;;;;;4.47;4.07;;;21.60;68.40;;;;;;10442424;28;20435;-53
2021/08/01 02:11:23;;;;;;;4.35;3.40;;;21.60;68.40;;;;;;10455317;28;20048;-53
2021/08/01 02:16:32;;;;;;;4.72;4.03;;;21.60;68.40;;;;;;10437126;28;20473;-53
2021/08/01 02:21:34;;;;;;;4.30;3.65;;;21.60;68.40;;;;;;10448228;28;20041;-53
2021/08/01 02:26:36;;;;;;;5.75;4.13;;;21.60;68.50;;;;;;10438811;28;20029;-53
2021/08/01 02:31:38;;;;;;;6.30;4.70;;;21.50;68.40;;;;;;10454912;28;20033;-53
2021/08/01 02:36:39;;;;;;;4.50;3.42;;;21.50;68.40;;;;;;10454196;28;20116;-53
2021/08/01 02:41:42;;;;;;;6.55;4.03;;;21.50;68.40;;;;;;10436438;28;20490;-52
2021/08/01 02:46:44;;;;;;;6.78;4.85;;;21.50;68.40;;;;;;10419247;28;20072;-53
2021/08/01 02:51:54;;;;;;;4.78;4.10;;;21.50;68.40;;;;;;10436407;28;20036;-53
2021/08/01 02:57:01;;;;;;;6.88;4.28;;;21.50;68.40;;;;;;10454020;28;20029;-53
2021/08/01 03:02:03;;;;;;;5.05;4.07;;;21.60;68.50;;;;;;10434938;28;20056;-53
2021/08/01 03:07:13;;;;;;;5.03;4.03;;;21.50;68.40;;;;;;10435393;28;20037;-53
2021/08/01 03:12:15;;;;;;;4.97;3.63;;;21.60;68.50;;;;;;10435514;28;20041;-55
2021/08/01 03:17:16;;;;;;;7.03;3.83;;;21.50;68.50;;;;;;10452666;28;20037;-52
2021/08/01 03:22:16;;;;;;;5.82;3.72;;;21.50;68.60;;;;;;10458141;28;20435;-53
2021/08/01 03:27:17;;;;;;;4.55;3.60;;;21.50;68.70;;;;;;10451187;28;20039;-52
2021/08/01 03:32:22;;;;;;;4.45;3.65;;;21.50;68.70;;;;;;10450978;28;20739;-51
2021/08/01 03:37:27;;;;;;;4.72;4.18;;;21.50;68.70;;;;;;10433233;28;20114;-52
2021/08/01 03:42:28;;;;;;;4.88;4.38;;;21.50;68.60;;;;;;10451267;28;20449;-52
2021/08/01 03:47:28;;;;;;;4.90;3.95;;;21.50;68.70;;;;;;10454682;28;20047;-52
2021/08/01 03:52:29;;;;;;;4.70;4.20;;;21.50;68.70;;;;;;10456653;28;20048;-52
2021/08/01 03:57:30;;;;;;;4.43;3.80;;;21.50;68.60;;;;;;10456597;28;20029;-53
2021/08/01 04:02:37;;;;;;;4.78;3.80;;;21.50;68.80;;;;;;10457303;28;20037;-51
2021/08/01 04:07:38;;;;;;;4.78;3.80;;;21.50;68.70;;;;;;10455888;28;20033;-53
2021/08/01 04:12:39;;;;;;;4.13;3.67;;;21.50;68.70;;;;;;10453801;28;20021;-52
2021/08/01 04:17:39;;;;;;;4.50;3.83;;;21.50;68.80;;;;;;10455960;28;20056;-52
2021/08/01 04:22:40;;;;;;;5.47;4.35;;;21.50;68.80;;;;;;10459807;28;20119;-52
2021/08/01 04:27:41;;;;;;;5.78;4.00;;;21.50;68.80;;;;;;10455721;28;20110;-52
2021/08/01 04:32:42;;;;;;;5.32;4.32;;;21.40;68.80;;;;;;10456704;28;20070;-51
2021/08/01 04:37:42;;;;;;;4.53;4.00;;;21.40;68.70;;;;;;10438654;28;20037;-52
2021/08/01 04:42:43;;;;;;;5.20;3.95;;;21.40;68.70;;;;;;10456264;28;20056;-52
2021/08/01 04:47:44;;;;;;;4.65;3.13;;;21.40;68.70;;;;;;10456008;28;20072;-53
2021/08/01 04:52:44;;;;;;;4.85;3.65;;;21.40;68.70;;;;;;10444257;28;20067;-50
2021/08/01 04:57:45;;;;;;;5.10;3.90;;;21.40;69.00;;;;;;10455698;28;20116;-51
2021/08/01 05:02:46;;;;;;;5.22;3.80;;;21.40;68.80;;;;;;10454229;28;20363;-50
2021/08/01 05:07:46;;;;;;;6.30;4.47;;;21.40;68.90;;;;;;10445998;28;20069;-52
2021/08/01 05:12:47;;;;;;;10.10;4.50;;;21.40;69.10;;;;;;10440459;28;20056;-53
2021/08/01 05:17:48;;;;;;;5.07;3.85;;;21.40;70.30;;;;;;10454207;28;20056;-53
2021/08/01 05:22:49;;;;;;;6.93;4.28;;;21.50;70.50;;;;;;10462003;28;20060;-53
2021/08/01 05:27:49;;;;;;;5.63;4.68;;;21.50;70.80;;;;;;10437411;28;20132;-52
2021/08/01 05:32:50;;;;;;;9.88;5.05;;;21.50;70.80;;;;;;10454982;28;20092;-53
2021/08/01 05:37:51;;;;;;;8.68;5.32;;;21.50;70.80;;;;;;10455079;28;20047;-53
2021/08/01 05:42:51;;;;;;;15.88;6.53;;;21.50;70.70;;;;;;10455195;28;20084;-51
2021/08/01 05:47:53;;;;;;;12.60;6.65;;;21.50;70.90;;;;;;10454305;28;20072;-53
2021/08/01 05:52:54;;;;;;;8.75;5.97;;;21.60;71.00;;;;;;10454606;28;20025;-55
2021/08/01 05:57:54;;;;;;;11.18;6.93;;;21.60;71.00;;;;;;10455053;28;20065;-53
2021/08/01 06:02:55;;;;;;;9.48;6.45;;;21.60;70.90;;;;;;10453062;28;20065;-52
2021/08/01 06:07:56;;;;;;;9.18;6.55;;;21.50;71.20;;;;;;10436894;28;20028;-53
2021/08/01 06:12:56;;;;;;;13.38;6.65;;;21.50;71.10;;;;;;10454004;28;20082;-53
2021/08/01 06:17:57;;;;;;;19.70;6.90;;;21.50;71.20;;;;;;10453998;28;20065;-50
2021/08/01 06:22:58;;;;;;;17.50;7.75;;;21.60;71.20;;;;;;10467837;28;20493;-51
2021/08/01 06:27:58;;;;;;;14.50;7.40;;;21.60;71.30;;;;;;10458825;28;20060;-49
2021/08/01 06:33:01;;;;;;;9.32;6.40;;;21.60;71.30;;;;;;10461005;28;20096;-51
2021/08/01 06:38:01;;;;;;;11.95;7.93;;;21.60;71.30;;;;;;10460539;28;20029;-51
2021/08/01 06:43:02;;;;;;;14.73;7.85;;;21.60;71.50;;;;;;10460791;28;20032;-54
2021/08/01 06:48:04;;;;;;;17.38;7.30;;;21.60;71.30;;;;;;10442253;28;20393;-53
2021/08/01 06:53:05;;;;;;;13.18;7.72;;;21.60;71.30;;;;;;10457441;28;20047;-52
2021/08/01 06:58:06;;;;;;;11.98;7.97;;;21.60;71.30;;;;;;10452645;28;20499;-51
2021/08/01 07:03:06;;;;;;;12.02;7.28;;;21.60;71.30;;;;;;10441283;28;20112;-50
2021/08/01 07:08:07;;;;;;;15.63;7.75;;;21.60;71.30;;;;;;10459665;28;20053;-53
2021/08/01 07:13:09;;;;;;;11.40;7.63;;;21.60;71.90;;;;;;10459288;28;20496;-52
2021/08/01 07:18:09;;;;;;;12.70;8.15;;;21.50;71.40;;;;;;10458945;28;20029;-52
2021/08/01 07:23:10;;;;;;;12.35;7.65;;;21.50;71.30;;;;;;10465118;28;20056;-52
2021/08/01 07:28:11;;;;;;;12.13;7.55;;;21.50;71.50;;;;;;10458794;28;20052;-52
2021/08/01 07:33:11;;;;;;;13.05;7.75;;;21.50;71.40;;;;;;10457458;28;20063;-53
2021/08/01 07:38:12;;;;;;;10.77;7.28;;;21.50;71.20;;;;;;10451275;28;20119;-52
2021/08/01 07:43:13;;;;;;;10.32;7.60;;;21.50;71.10;;;;;;10451683;28;20068;-52
2021/08/01 07:48:13;;;;;;;10.60;7.50;;;21.50;70.90;;;;;;10456106;28;20068;-53
2021/08/01 07:53:14;;;;;;;14.25;9.05;;;21.40;70.90;;;;;;10457913;28;20108;-53
2021/08/01 07:58:15;;;;;;;17.48;8.73;;;21.40;70.90;;;;;;10454645;28;20040;-53
2021/08/01 08:03:16;;;;;;;14.45;8.50;;;21.40;70.70;;;;;;10447081;28;20772;-53
2021/08/01 08:08:17;;;;;;;9.43;7.88;;;21.40;70.90;;;;;;10452306;28;20045;-54
2021/08/01 08:13:17;;;;;;;11.43;8.15;;;21.40;71.10;;;;;;10436810;28;20117;-52
2021/08/01 08:18:18;;;;;;;10.60;7.45;;;21.40;70.90;;;;;;10441677;28;20025;-53
2021/08/01 08:23:19;;;;;;;11.85;8.13;;;21.40;71.00;;;;;;10461690;28;20118;-52
2021/08/01 08:28:20;;;;;;;11.35;8.88;;;21.40;70.80;;;;;;10454237;28;20127;-53
2021/08/01 08:33:20;;;;;;;12.02;9.25;;;21.40;70.80;;;;;;10454255;28;20025;-53
2021/08/01 08:38:21;;;;;;;15.00;9.32;;;21.40;70.70;;;;;;10438070;28;20151;-52
2021/08/01 08:43:21;;;;;;;11.55;8.93;;;21.40;71.10;;;;;;10456005;28;20108;-52
2021/08/01 08:48:24;;;;;;;13.10;9.55;;;21.40;71.00;;;;;;10452930;28;20041;-53
2021/08/01 08:53:27;;;;;;;11.68;9.50;;;21.40;70.40;;;;;;10433244;28;20036;-52
2021/08/01 08:58:30;;;;;;;14.70;9.52;;;21.40;70.80;;;;;;10434214;28;20037;-53
2021/08/01 09:03:31;;;;;;;19.75;10.10;;;21.40;71.00;;;;;;10455240;28;20036;-51
2021/08/01 09:08:32;;;;;;;16.52;10.52;;;21.40;70.90;;;;;;10454726;28;20025;-53
2021/08/01 09:13:54;;;;;;;17.05;10.50;;;21.40;70.90;;;;;;10455423;28;20481;-51
2021/08/01 09:18:55;;;;;;;16.23;10.65;;;21.40;70.90;;;;;;10455502;28;20416;-51
2021/08/01 09:23:55;;;;;;;36.38;10.45;;;21.40;71.10;;;;;;10454187;28;20115;-52
2021/08/01 09:29:04;;;;;;;21.83;10.27;;;21.40;71.00;;;;;;10454240;28;20501;-50
2021/08/01 09:34:25;;;;;;;21.73;9.83;;;21.40;71.40;;;;;;10454620;28;20024;-52
2021/08/01 09:39:28;;;;;;;22.15;10.88;;;21.40;71.30;;;;;;10453548;28;20625;-50
2021/08/01 09:44:31;;;;;;;26.42;11.07;;;21.50;71.50;;;;;;10452985;28;20041;-51
2021/08/01 09:49:32;;;;;;;25.70;12.95;;;21.50;71.60;;;;;;10454318;28;20124;-49
2021/08/01 09:54:47;;;;;;;29.90;12.70;;;21.50;71.90;;;;;;10455299;28;20029;-53
2021/08/01 09:59:49;;;;;;;26.73;11.63;;;21.60;72.40;;;;;;10462943;28;20040;-51
2021/08/01 10:04:50;;;;;;;27.92;13.82;;;21.60;72.50;;;;;;10462413;28;20113;-54
2021/08/01 10:09:52;;;;;;;33.10;16.30;;;21.70;73.30;;;;;;10462102;28;20057;-56
2021/08/01 10:14:53;;;;;;;29.25;21.35;;;21.80;73.50;;;;;;10458509;28;20562;-49
2021/08/01 10:19:53;;;;;;;29.92;17.85;;;21.90;73.00;;;;;;10462004;28;20039;-50
2021/08/01 10:25:00;;;;;;;29.77;18.85;;;21.90;73.40;;;;;;10446998;28;20472;-54
2021/08/01 10:30:01;;;;;;;35.05;17.25;;;21.90;73.40;;;;;;10460553;28;20405;-54
2021/08/01 10:35:16;;;;;;;33.40;17.15;;;21.90;73.60;;;;;;10449492;28;20099;-53
2021/08/01 10:40:21;;;;;;;26.05;16.08;;;21.90;73.50;;;;;;10459243;28;20029;-53
2021/08/01 10:45:22;;;;;;;32.45;16.67;;;21.90;73.60;;;;;;10449093;28;20083;-50
2021/08/01 10:50:26;;;;;;;28.85;17.15;;;21.90;73.50;;;;;;10443136;28;20033;-49
2021/08/01 10:55:27;;;;;;;29.38;14.88;;;21.90;73.50;;;;;;10443010;28;20063;-46
2021/08/01 11:01:04;;;;;;;25.58;14.52;;;21.90;73.40;;;;;;10460417;28;20033;-51
2021/08/01 11:06:35;;;;;;;29.60;13.88;;;21.80;73.10;;;;;;10457864;28;20025;-45
2021/08/01 11:11:35;;;;;;;25.67;14.57;;;21.80;73.30;;;;;;10457468;28;20492;-52
2021/08/01 11:16:39;;;;;;;18.48;12.40;;;21.80;73.30;;;;;;10444342;28;20123;-50
2021/08/01 11:21:40;;;;;;;21.88;12.27;;;21.80;73.20;;;;;;10464051;28;20029;-50
2021/08/01 11:27:08;;;;;;;20.13;12.75;;;21.80;73.20;;;;;;10439834;28;20057;-53
2021/08/01 11:32:09;;;;;;;17.42;12.60;;;21.80;73.10;;;;;;10457095;28;20112;-51
2021/08/01 11:37:20;;;;;;;22.40;12.02;;;21.80;73.30;;;;;;10456645;28;20029;-51
2021/08/01 11:42:28;;;;;;;15.38;10.70;;;21.80;73.10;;;;;;10456633;28;20029;-53
2021/08/01 11:47:45;;;;;;;16.65;11.75;;;21.70;72.90;;;;;;10456944;28;20037;-53
2021/08/01 11:52:46;;;;;;;18.48;11.15;;;21.70;73.00;;;;;;10458282;28;20477;-52
2021/08/01 11:57:50;;;;;;;13.57;9.88;;;21.70;73.10;;;;;;10457839;28;20374;-50
2021/08/01 12:02:56;;;;;;;17.50;10.70;;;21.70;73.00;;;;;;10457273;28;20029;-52
2021/08/01 12:07:56;;;;;;;15.65;10.50;;;21.70;72.90;;;;;;10442345;28;20064;-50
2021/08/01 12:12:59;;;;;;;13.43;9.43;;;21.70;72.90;;;;;;10456176;28;20044;-52
2021/08/01 12:17:59;;;;;;;17.73;10.35;;;21.70;72.90;;;;;;10437949;28;20039;-49
2021/08/01 12:23:04;;;;;;;14.18;8.82;;;21.70;74.10;;;;;;10462501;28;20047;-51
2021/08/01 12:28:05;;;;;;;18.60;9.45;;;21.90;74.70;;;;;;10456699;28;20466;-49
2021/08/01 12:33:06;;;;;;;16.13;8.55;;;21.90;74.90;;;;;;10456321;28;20111;-51
2021/08/01 12:38:10;;;;;;;25.08;9.80;;;21.90;75.10;;;;;;10456215;28;20516;-54
2021/08/01 12:43:14;;;;;;;16.17;9.18;;;21.90;74.80;;;;;;10454947;28;20060;-52
2021/08/01 12:48:23;;;;;;;16.85;9.00;;;21.90;74.90;;;;;;10455497;28;20076;-52
2021/08/01 12:53:27;;;;;;;22.35;9.55;;;22.00;75.40;;;;;;10438534;28;20029;-53
2021/08/01 12:58:36;;;;;;;24.65;9.40;;;22.00;75.80;;;;;;10438215;28;20036;-55
2021/08/01 13:03:48;;;;;;;22.23;8.93;;;22.00;75.30;;;;;;10455564;28;20431;-47
2021/08/01 13:08:49;;;;;;;23.92;9.30;;;22.00;75.50;;;;;;10437586;28;20060;-54
2021/08/01 13:13:53;;;;;;;23.48;9.50;;;22.10;75.80;;;;;;10454476;28;20133;-51
2021/08/01 13:19:12;;;;;;;26.70;9.82;;;22.10;75.80;;;;;;10438275;28;20119;-54
2021/08/01 13:24:15;;;;;;;16.25;9.20;;;22.10;75.80;;;;;;10461127;28;20116;-52
2021/08/01 13:29:21;;;;;;;17.88;8.30;;;22.10;76.30;;;;;;10455234;28;20123;-50
2021/08/01 13:34:37;;;;;;;22.00;9.13;;;22.20;76.40;;;;;;10463274;28;20021;-50
2021/08/01 13:39:43;;;;;;;23.70;8.25;;;22.20;76.20;;;;;;10463105;28;20033;-53
2021/08/01 13:44:44;;;;;;;23.35;8.45;;;22.20;76.20;;;;;;10462658;28;20084;-54
2021/08/01 13:49:51;;;;;;;29.60;8.55;;;22.20;75.60;;;;;;10462268;28;20057;-53
2021/08/01 13:54:54;;;;;;;15.60;7.85;;;22.10;75.50;;;;;;10435640;28;20116;-52
2021/08/01 13:59:57;;;;;;;19.95;8.82;;;22.10;75.50;;;;;;10460726;28;20664;-53
2021/08/01 14:04:58;;;;;;;19.27;7.30;;;22.10;75.30;;;;;;10458834;28;20033;-52
2021/08/01 14:09:58;;;;;;;20.05;7.10;;;22.10;75.40;;;;;;10443281;28;20040;-54
2021/08/01 14:14:59;;;;;;;18.17;7.15;;;22.10;75.20;;;;;;10461869;28;20513;-49
2021/08/01 14:20:01;;;;;;;19.02;7.55;;;22.00;74.90;;;;;;10460277;28;20405;-53
2021/08/01 14:25:04;;;;;;;16.55;7.97;;;22.00;74.90;;;;;;10461002;28;20041;-54
2021/08/01 14:30:06;;;;;;;14.90;6.90;;;22.00;74.80;;;;;;10460702;28;20037;-54
2021/08/01 14:35:08;;;;;;;10.80;6.82;;;22.00;74.70;;;;;;10461229;28;20470;-54
2021/08/01 14:40:09;;;;;;;11.77;7.55;;;22.00;74.70;;;;;;10446989;28;20029;-54
2021/08/01 14:45:10;;;;;;;10.45;6.45;;;22.00;74.80;;;;;;10458978;28;20049;-54
2021/08/01 14:50:28;;;;;;;12.13;6.75;;;21.90;74.60;;;;;;10460591;28;20036;-53
2021/08/01 14:55:32;;;;;;;9.80;6.38;;;22.00;74.50;;;;;;10460417;28;20028;-53
2021/08/01 15:00:39;;;;;;;11.35;6.75;;;22.00;74.60;;;;;;10460208;28;20028;-54
2021/08/01 15:06:03;;;;;;;13.07;6.18;;;21.90;74.50;;;;;;10443336;28;20029;-54
2021/08/01 15:11:19;;;;;;;11.05;5.90;;;21.90;74.40;;;;;;10443450;28;20082;-53
2021/08/01 15:16:26;;;;;;;12.43;6.28;;;21.90;74.40;;;;;;10459881;28;20136;-54
2021/08/01 15:21:30;;;;;;;10.40;6.45;;;21.90;74.40;;;;;;10465272;28;20346;-51
2021/08/01 15:26:32;;;;;;;10.20;6.18;;;21.90;74.30;;;;;;10459327;28;20043;-54
2021/08/01 15:31:34;;;;;;;9.93;5.82;;;21.90;74.20;;;;;;10443875;28;20068;-54
2021/08/01 15:36:35;;;;;;;10.38;6.13;;;21.90;74.20;;;;;;10440909;28;20017;-54
2021/08/01 15:41:36;;;;;;;12.63;6.60;;;21.90;74.20;;;;;;10449606;28;20032;-54
2021/08/01 15:46:38;;;;;;;18.50;9.48;;;21.90;74.40;;;;;;10458081;28;20052;-53
2021/08/01 15:51:45;;;;;;;20.80;11.23;;;21.90;76.10;;;;;;10452987;28;20024;-54
2021/08/01 15:56:51;;;;;;;18.55;7.55;;;22.00;78.50;;;;;;10444988;28;20037;-52
2021/08/01 16:02:09;;;;;;;15.75;8.48;;;22.00;75.90;;;;;;10454768;28;20498;-50
2021/08/01 16:07:20;;;;;;;17.02;9.55;;;22.00;76.40;;;;;;10454213;28;20025;-53
2021/08/01 16:12:28;;;;;;;14.20;7.05;;;22.10;77.30;;;;;;10454405;28;20678;-51
2021/08/01 16:17:38;;;;;;;15.48;7.63;;;22.10;76.80;;;;;;10457468;28;20104;-52
2021/08/01 16:22:49;;;;;;;15.95;7.50;;;22.10;76.30;;;;;;10457776;28;20029;-49
2021/08/01 16:27:52;;;;;;;17.70;6.97;;;22.10;76.20;;;;;;10457129;28;20063;-52
2021/08/01 16:32:53;;;;;;;13.88;5.85;;;22.10;76.20;;;;;;10439123;28;20028;-52
2021/08/01 16:37:53;;;;;;;15.82;7.10;;;22.10;76.10;;;;;;10456719;28;20060;-53
2021/08/01 16:43:12;;;;;;;13.25;6.28;;;22.10;76.30;;;;;;10455867;28;20048;-52
2021/08/01 16:48:30;;;;;;;10.90;5.53;;;22.10;76.40;;;;;;10455409;28;20077;-50
2021/08/01 16:54:01;;;;;;;11.80;5.88;;;22.00;76.10;;;;;;10436837;28;20031;-53
2021/08/01 16:59:06;;;;;;;12.13;5.93;;;22.00;75.90;;;;;;10439048;28;20554;-53
2021/08/01 17:04:18;;;;;;;11.38;5.60;;;22.00;76.00;;;;;;10438572;28;20056;-51
2021/08/01 17:09:33;;;;;;;10.80;5.80;;;22.00;75.70;;;;;;10455925;28;20527;-49
2021/08/01 17:14:55;;;;;;;13.98;5.82;;;22.00;75.50;;;;;;10433157;28;20033;-53
2021/08/01 17:19:56;;;;;;;10.57;5.03;;;22.00;75.40;;;;;;10442271;28;20444;-50
2021/08/01 17:24:57;;;;;;;13.35;6.20;;;21.90;75.40;;;;;;10437481;28;20114;-49
2021/08/01 17:30:00;;;;;;;9.63;5.35;;;21.90;75.30;;;;;;10455220;28;20033;-52
2021/08/01 17:35:07;;;;;;;10.52;4.70;;;21.90;75.10;;;;;;10436618;28;20033;-54
2021/08/01 17:40:13;;;;;;;7.45;4.93;;;21.90;74.80;;;;;;10452351;28;20097;-52
2021/08/01 17:45:14;;;;;;;6.78;4.60;;;21.90;74.80;;;;;;10454533;28;20049;-52
2021/08/01 17:50:15;;;;;;;8.57;5.13;;;21.90;74.80;;;;;;10454729;28;20087;-49
2021/08/01 17:55:18;;;;;;;8.38;4.22;;;21.90;74.60;;;;;;10454906;28;20033;-50
2021/08/01 18:00:22;;;;;;;10.57;4.43;;;21.90;74.60;;;;;;10454203;28;20112;-51
2021/08/01 18:05:24;;;;;;;10.82;4.57;;;21.90;74.80;;;;;;10453819;28;20037;-51
2021/08/01 18:10:27;;;;;;;8.90;4.43;;;21.90;74.80;;;;;;10453427;28;20374;-52
2021/08/01 18:15:35;;;;;;;7.22;4.57;;;21.90;74.70;;;;;;10436360;28;20072;-52
2021/08/01 18:20:39;;;;;;;7.78;3.60;;;21.90;74.60;;;;;;10459908;28;20501;-51
2021/08/01 18:25:39;;;;;;;7.90;4.30;;;21.90;74.50;;;;;;10454976;28;20029;-52
2021/08/01 18:30:40;;;;;;;5.72;3.50;;;21.90;74.40;;;;;;10457255;28;20120;-52
2021/08/01 18:35:47;;;;;;;6.90;3.58;;;21.90;74.40;;;;;;10443283;28;20017;-52
2021/08/01 18:40:52;;;;;;;6.85;3.83;;;21.90;74.30;;;;;;10460598;28;20496;-52
2021/08/01 18:45:55;;;;;;;5.00;3.50;;;21.80;74.30;;;;;;10460524;28;20048;-53
2021/08/01 18:50:56;;;;;;;4.20;3.40;;;21.80;74.10;;;;;;10443686;28;20397;-55
2021/08/01 18:56:01;;;;;;;6.20;3.30;;;21.80;74.20;;;;;;10455491;28;20033;-55
2021/08/01 19:01:04;;;;;;;6.88;4.03;;;21.80;74.00;;;;;;10432597;28;20365;-53
2021/08/01 19:06:05;;;;;;;8.02;3.58;;;21.80;74.10;;;;;;10438448;28;20445;-54
2021/08/01 19:11:06;;;;;;;5.20;3.17;;;21.80;73.90;;;;;;10444361;28;20037;-55
2021/08/01 19:16:14;;;;;;;5.68;3.58;;;21.80;73.80;;;;;;10442256;28;20036;-54
2021/08/01 19:21:20;;;;;;;5.15;3.40;;;21.80;73.80;;;;;;10465749;28;20032;-53
2021/08/01 19:26:39;;;;;;;5.65;3.75;;;21.80;73.80;;;;;;10459658;28;20024;-53
2021/08/01 19:31:43;;;;;;;6.20;2.92;;;21.80;73.60;;;;;;10438502;28;20033;-53
2021/08/01 19:36:46;;;;;;;3.25;2.42;;;21.80;73.50;;;;;;10458748;28;20020;-52
2021/08/01 19:41:50;;;;;;;3.42;2.58;;;21.80;73.20;;;;;;10457643;28;20390;-53
2021/08/01 19:46:56;;;;;;;5.88;3.20;;;21.70;72.90;;;;;;10455569;28;20048;-53
2021/08/01 19:51:58;;;;;;;6.13;2.88;;;21.70;72.60;;;;;;10455429;28;20044;-54
2021/08/01 19:57:00;;;;;;;3.53;2.60;;;21.70;72.60;;;;;;10446470;28;20772;-52
2021/08/01 20:02:01;;;;;;;5.55;3.03;;;21.70;72.30;;;;;;10444931;28;20043;-54
2021/08/01 20:07:02;;;;;;;5.10;2.78;;;21.70;72.00;;;;;;10455817;28;20035;-55
2021/08/01 20:12:03;;;;;;;7.30;2.95;;;21.70;71.90;;;;;;10456039;28;20041;-53
2021/08/01 20:17:04;;;;;;;4.18;2.47;;;21.70;71.70;;;;;;10455708;28;20516;-52
2021/08/01 20:22:06;;;;;;;4.30;2.80;;;21.70;71.70;;;;;;10460777;28;20537;-53
2021/08/01 20:27:08;;;;;;;3.58;2.50;;;21.60;71.40;;;;;;10455222;28;20057;-53
2021/08/01 20:32:09;;;;;;;5.18;2.67;;;21.60;71.30;;;;;;10445800;28;20036;-53
2021/08/01 20:37:09;;;;;;;3.30;2.42;;;21.70;71.20;;;;;;10455192;28;20531;-52
2021/08/01 20:42:10;;;;;;;4.88;2.30;;;21.60;71.00;;;;;;10436950;28;20422;-54
2021/08/01 20:47:12;;;;;;;5.07;2.90;;;21.60;70.90;;;;;;10377967;28;1026466;-53
2021/08/01 20:52:12;;;;;;;3.05;2.22;;;21.60;70.80;;;;;;10367994;28;20034;-52
2021/08/01 20:57:14;;;;;;;4.13;2.30;;;21.60;70.70;;;;;;10374213;28;20057;-51
2021/08/01 21:02:14;;;;;;;4.25;2.25;;;21.60;70.50;;;;;;10364550;28;20049;-54
2021/08/01 21:07:15;;;;;;;3.38;2.17;;;21.50;70.40;;;;;;10351549;28;20077;-51
2021/08/01 21:12:16;;;;;;;4.53;2.83;;;21.50;70.30;;;;;;10362185;28;20069;-52
2021/08/01 21:17:17;;;;;;;3.45;2.00;;;21.50;70.20;;;;;;10373835;28;20030;-52
2021/08/01 21:22:18;;;;;;;2.85;1.98;;;21.50;70.00;;;;;;10370154;28;20467;-53
2021/08/01 21:27:19;;;;;;;3.58;2.20;;;21.50;69.90;;;;;;10398917;28;20044;-52
2021/08/01 21:32:19;;;;;;;3.70;1.95;;;21.50;69.70;;;;;;10374851;28;20042;-54
2021/08/01 21:37:21;;;;;;;3.63;2.15;;;21.50;69.70;;;;;;10381193;28;20028;-54
2021/08/01 21:42:22;;;;;;;3.20;1.92;;;21.50;69.60;;;;;;10368343;28;20041;-53
2021/08/01 21:47:22;;;;;;;3.28;2.00;;;21.50;69.40;;;;;;10429205;28;20128;-53
2021/08/01 21:52:23;;;;;;;2.63;1.67;;;21.50;69.40;;;;;;10458482;28;20119;-53
2021/08/01 21:57:24;;;;;;;3.28;1.73;;;21.50;69.30;;;;;;10445239;28;20025;-53
2021/08/01 22:02:29;;;;;;;4.55;2.00;;;21.40;69.10;;;;;;10462128;28;20052;-53
2021/08/01 22:07:30;;;;;;;3.67;1.80;;;21.40;69.00;;;;;;10463289;28;20560;-53
2021/08/01 22:12:32;;;;;;;2.88;1.77;;;21.40;68.90;;;;;;10462143;28;20489;-54
2021/08/01 22:17:32;;;;;;;3.25;1.63;;;21.40;68.80;;;;;;10462514;28;20029;-52
2021/08/01 22:22:33;;;;;;;4.43;1.95;;;21.40;68.70;;;;;;10468425;28;20147;-53
2021/08/01 22:27:36;;;;;;;4.05;1.98;;;21.40;68.60;;;;;;10461995;28;20100;-54
2021/08/01 22:32:41;;;;;;;3.50;1.90;;;21.40;68.60;;;;;;10461718;28;20477;-54
2021/08/01 22:37:43;;;;;;;2.92;1.88;;;21.40;68.50;;;;;;10461326;28;20040;-53
2021/08/01 22:42:45;;;;;;;2.53;1.88;;;21.40;68.40;;;;;;10461351;28;20060;-54
2021/08/01 22:47:48;;;;;;;3.10;2.03;;;21.40;68.40;;;;;;10444181;28;20045;-54
2021/08/01 22:52:48;;;;;;;2.20;1.40;;;21.40;68.30;;;;;;10461083;28;20032;-53
2021/08/01 22:57:49;;;;;;;4.72;2.30;;;21.30;68.20;;;;;;10461170;28;20128;-53
2021/08/01 23:03:18;;;;;;;2.90;1.75;;;21.40;68.20;;;;;;10459438;28;20061;-53
2021/08/01 23:08:41;;;;;;;2.57;1.63;;;21.30;68.00;;;;;;10444706;28;20029;-54
2021/08/01 23:13:57;;;;;;;3.55;1.90;;;21.40;68.10;;;;;;10460197;28;20033;-53
2021/08/01 23:19:04;;;;;;;2.88;1.63;;;21.30;67.90;;;;;;10460206;28;20037;-54
2021/08/01 23:24:08;;;;;;;4.88;1.63;;;21.30;67.90;;;;;;10466559;28;20033;-54
2021/08/01 23:29:12;;;;;;;4.30;1.80;;;21.20;67.80;;;;;;10442200;28;20051;-53
2021/08/01 23:34:14;;;;;;;4.60;1.65;;;21.30;67.80;;;;;;10443696;28;20037;-54
2021/08/01 23:39:17;;;;;;;2.85;1.80;;;21.30;67.80;;;;;;10441868;28;20103;-53
2021/08/01 23:44:18;;;;;;;3.28;1.80;;;21.30;67.70;;;;;;10458566;28;20049;-53
2021/08/01 23:49:20;;;;;;;2.45;1.52;;;21.20;67.70;;;;;;10441260;28;20055;-54
2021/08/01 23:55:04;;;;;;;2.10;1.45;;;21.20;67.60;;;;;;10441829;28;20098;-52
